createdAt,value
2023-04-03T00:04:53.280Z,8
2023-04-03T00:09:53.443Z,8
2023-04-03T00:14:53.294Z,9
2023-04-03T00:19:53.350Z,8
2023-04-03T00:24:53.397Z,9
2023-04-03T00:29:53.320Z,9
2023-04-03T00:34:53.471Z,9
2023-04-03T00:39:53.335Z,8
2023-04-03T00:45:25.251Z,9
2023-04-03T00:49:53.311Z,8
2023-04-03T00:54:54.769Z,8
2023-04-03T00:59:53.326Z,8
2023-04-03T01:04:53.352Z,8
2023-04-03T01:09:53.173Z,8
2023-04-03T01:14:53.459Z,8
2023-04-03T01:19:53.166Z,8
2023-04-03T01:24:53.491Z,8
2023-04-03T01:29:53.114Z,8
2023-04-03T01:34:53.485Z,8
2023-04-03T01:39:53.425Z,8
2023-04-03T01:44:53.245Z,8
2023-04-03T01:49:53.539Z,8
2023-04-03T01:54:53.372Z,9
2023-04-03T01:59:53.128Z,9
2023-04-03T02:04:53.365Z,9
2023-04-03T02:09:53.536Z,9
2023-04-03T02:14:53.348Z,9
2023-04-03T02:19:53.409Z,9
2023-04-03T02:24:53.163Z,9
2023-04-03T02:29:53.788Z,9
2023-04-03T02:34:53.347Z,9
2023-04-03T02:39:53.523Z,9
2023-04-03T02:44:53.250Z,10
2023-04-03T02:49:53.188Z,10
2023-04-03T02:54:53.287Z,10
2023-04-03T02:59:53.338Z,10
2023-04-03T03:04:53.175Z,10
2023-04-03T03:09:53.656Z,10
2023-04-03T03:14:53.322Z,10
2023-04-03T03:19:53.265Z,10
2023-04-03T03:24:52.985Z,10
2023-04-03T03:29:53.209Z,10
2023-04-03T03:34:53.078Z,10
2023-04-03T03:39:53.527Z,10
2023-04-03T03:44:53.307Z,11
2023-04-03T03:49:53.254Z,11
2023-04-03T03:54:53.259Z,10
2023-04-03T03:59:53.014Z,10
2023-04-03T04:04:53.004Z,10
2023-04-03T04:09:53.438Z,11
2023-04-03T04:14:53.074Z,11
2023-04-03T04:19:53.351Z,11
2023-04-03T04:24:53.020Z,11
2023-04-03T04:29:53.449Z,11
2023-04-03T04:34:53.142Z,11
2023-04-03T04:39:53.135Z,11
2023-04-03T04:44:53.078Z,11
2023-04-03T04:49:53.140Z,11
2023-04-03T04:54:52.983Z,11
2023-04-03T04:59:52.905Z,12
2023-04-03T05:04:53.310Z,12
2023-04-03T05:09:53.235Z,12
2023-04-03T05:14:52.859Z,12
2023-04-03T05:19:53.084Z,12
2023-04-03T05:24:53.012Z,12
2023-04-03T05:29:53.490Z,12
2023-04-03T05:34:53.006Z,12
2023-04-03T05:39:53.944Z,12
2023-04-03T05:44:52.855Z,12
2023-04-03T05:49:53.455Z,13
2023-04-03T05:54:53.295Z,13
2023-04-03T05:59:53.190Z,13
2023-04-03T06:04:53.311Z,13
2023-04-03T06:09:55.462Z,13
2023-04-03T06:14:52.882Z,13
2023-04-03T06:19:53.417Z,13
2023-04-03T06:24:52.844Z,13
2023-04-03T06:29:52.908Z,13
2023-04-03T06:34:53.185Z,14
2023-04-03T06:39:53.222Z,14
2023-04-03T06:44:53.219Z,14
2023-04-03T06:49:53.099Z,14
2023-04-03T06:54:53.095Z,15
2023-04-03T06:59:52.982Z,15
2023-04-03T07:04:53.009Z,14
2023-04-03T07:09:52.874Z,14
2023-04-03T07:14:53.133Z,14
2023-04-03T07:19:53.049Z,14
2023-04-03T07:24:52.937Z,14
2023-04-03T07:29:53.900Z,14
2023-04-03T07:34:53.104Z,14
2023-04-03T07:39:52.834Z,13
2023-04-03T07:44:52.923Z,13
2023-04-03T07:49:53.110Z,12
2023-04-03T07:54:52.740Z,12
2023-04-03T07:59:52.971Z,12
2023-04-03T08:04:52.936Z,12
2023-04-03T08:09:53.097Z,11
2023-04-03T08:14:52.970Z,11
2023-04-03T08:19:53.035Z,11
2023-04-03T08:24:58.986Z,10
2023-04-03T08:29:53.014Z,10
2023-04-03T08:34:52.994Z,10
2023-04-03T08:39:53.040Z,10
2023-04-03T08:44:56.540Z,10
2023-04-03T08:49:53.077Z,9
2023-04-03T08:54:53.043Z,9
2023-04-03T08:59:52.768Z,9
2023-04-03T09:04:53.025Z,9
2023-04-03T09:09:52.720Z,9
2023-04-03T09:14:57.759Z,9
2023-04-03T09:19:52.971Z,9
2023-04-03T09:24:56.998Z,8
2023-04-03T09:29:52.791Z,8
2023-04-03T09:34:52.929Z,8
2023-04-03T09:39:52.805Z,8
2023-04-03T09:44:52.927Z,7
2023-04-03T09:49:53.046Z,7
2023-04-03T09:54:52.887Z,7
2023-04-03T09:59:52.772Z,8
2023-04-03T10:05:08.438Z,8
2023-04-03T10:09:55.049Z,8
2023-04-03T10:14:52.961Z,8
2023-04-03T10:19:52.757Z,7
2023-04-03T10:24:57.633Z,7
2023-04-03T10:29:52.877Z,7
2023-04-03T10:35:04.589Z,7
2023-04-03T10:39:52.714Z,7
2023-04-03T10:44:52.946Z,7
2023-04-03T10:50:00.003Z,7
2023-04-03T10:54:52.627Z,6
2023-04-03T10:59:52.872Z,6
2023-04-03T11:04:54.864Z,6
2023-04-03T11:09:52.551Z,6
2023-04-03T11:14:52.569Z,6
2023-04-03T11:19:52.889Z,6
2023-04-03T11:24:52.677Z,6
2023-04-03T11:29:52.579Z,6
2023-04-03T11:34:54.040Z,6
2023-04-03T11:39:52.793Z,6
2023-04-03T11:44:52.540Z,6
2023-04-03T11:49:52.580Z,5
2023-04-03T11:54:52.759Z,5
2023-04-03T11:59:52.782Z,5
2023-04-03T12:05:25.126Z,5
2023-04-03T12:09:52.747Z,5
2023-04-03T12:14:52.850Z,5
2023-04-03T12:19:52.883Z,5
2023-04-03T12:24:52.558Z,5
2023-04-03T12:29:52.635Z,5
2023-04-03T12:35:03.473Z,5
2023-04-03T12:40:01.239Z,5
2023-04-03T12:44:52.451Z,5
2023-04-03T12:49:52.933Z,5
2023-04-03T12:54:52.794Z,5
2023-04-03T12:59:52.747Z,6
2023-04-03T13:04:52.471Z,6
2023-04-03T13:09:52.536Z,6
2023-04-03T13:14:52.427Z,6
2023-04-03T13:19:53.606Z,6
2023-04-03T13:24:52.560Z,6
2023-04-03T13:29:52.730Z,6
2023-04-03T13:34:52.614Z,6
2023-04-03T13:39:59.816Z,6
2023-04-03T13:44:52.615Z,6
2023-04-03T13:49:52.776Z,6
2023-04-03T13:54:52.519Z,6
2023-04-03T13:59:52.583Z,6
2023-04-03T14:04:52.632Z,6
2023-04-03T14:09:53.660Z,6
2023-04-03T14:14:52.624Z,6
2023-04-03T14:19:53.283Z,6
2023-04-03T14:24:52.877Z,6
2023-04-03T14:29:53.838Z,6
2023-04-03T14:34:52.677Z,7
2023-04-03T14:39:52.556Z,7
2023-04-03T14:44:52.705Z,7
2023-04-03T14:49:52.765Z,6
2023-04-03T14:54:52.780Z,6
2023-04-03T14:59:52.356Z,6
2023-04-03T15:04:53.663Z,6
2023-04-03T15:09:52.623Z,6
2023-04-03T15:14:59.479Z,6
2023-04-03T15:19:52.865Z,6
2023-04-03T15:24:52.538Z,6
2023-04-03T15:29:52.446Z,6
2023-04-03T15:34:55.945Z,6
2023-04-03T15:39:52.436Z,6
2023-04-03T15:44:52.764Z,7
2023-04-03T15:49:52.386Z,6
2023-04-03T15:54:52.557Z,7
2023-04-03T15:59:52.538Z,7
2023-04-03T16:04:52.661Z,7
2023-04-03T16:09:52.719Z,7
2023-04-03T16:14:52.317Z,7
2023-04-03T16:19:52.436Z,7
2023-04-03T16:24:52.312Z,7
2023-04-03T16:29:52.449Z,8
2023-04-03T16:34:52.669Z,7
2023-04-03T16:39:52.405Z,7
2023-04-03T16:44:52.463Z,8
2023-04-03T16:49:52.800Z,8
2023-04-03T16:54:52.360Z,7
2023-04-03T16:59:52.459Z,7
2023-04-03T17:04:52.493Z,7
2023-04-03T17:09:52.258Z,8
2023-04-03T17:14:52.219Z,8
2023-04-03T17:19:53.828Z,8
2023-04-03T17:24:52.307Z,8
2023-04-03T17:29:52.426Z,8
2023-04-03T17:34:52.698Z,8
2023-04-03T17:39:52.247Z,8
2023-04-03T17:44:52.379Z,8
2023-04-03T17:49:52.551Z,8
2023-04-03T17:54:52.247Z,8
2023-04-03T17:59:52.821Z,8
2023-04-03T18:04:52.653Z,8
2023-04-03T18:09:54.745Z,8
2023-04-03T18:14:52.805Z,9
2023-04-03T18:19:52.287Z,9
2023-04-03T18:24:52.203Z,9
2023-04-03T18:29:55.209Z,8
2023-04-03T18:34:52.530Z,8
2023-04-03T18:39:52.522Z,8
2023-04-03T18:44:52.420Z,9
2023-04-03T18:49:52.837Z,9
2023-04-03T18:54:52.256Z,9
2023-04-03T18:59:52.543Z,9
2023-04-03T19:04:52.465Z,9
2023-04-03T19:09:52.438Z,9
2023-04-03T19:14:52.129Z,9
2023-04-03T19:19:52.607Z,10
2023-04-03T19:24:52.178Z,10
2023-04-03T19:29:52.340Z,10
2023-04-03T19:34:52.548Z,10
2023-04-03T19:39:52.390Z,10
2023-04-03T19:44:52.588Z,10
2023-04-03T19:49:52.628Z,10
2023-04-03T19:54:53.054Z,10
2023-04-03T19:59:52.075Z,10
2023-04-03T20:04:52.595Z,10
2023-04-03T20:09:52.476Z,11
2023-04-03T20:14:52.280Z,11
2023-04-03T20:19:52.302Z,11
2023-04-03T20:24:52.030Z,11
2023-04-03T20:29:52.091Z,11
2023-04-03T20:35:02.995Z,11
2023-04-03T20:39:52.227Z,11
2023-04-03T20:44:52.348Z,11
2023-04-03T20:49:52.166Z,11
2023-04-03T20:54:52.383Z,11
2023-04-03T20:59:52.216Z,11
2023-04-03T21:04:53.827Z,10
2023-04-03T21:09:52.028Z,11
2023-04-03T21:15:34.196Z,11
2023-04-03T21:19:52.341Z,11
2023-04-03T21:24:52.329Z,11
2023-04-03T21:29:51.964Z,11
2023-04-03T21:34:52.046Z,11
2023-04-03T21:39:52.329Z,11
2023-04-03T21:44:52.161Z,11
2023-04-03T21:49:52.565Z,11
2023-04-03T21:54:52.324Z,12
2023-04-03T22:00:03.843Z,12
2023-04-03T22:04:52.281Z,12
2023-04-03T22:09:52.004Z,12
2023-04-03T22:14:52.420Z,12
2023-04-03T22:19:52.303Z,13
2023-04-03T22:24:52.261Z,13
2023-04-03T22:29:52.212Z,13
2023-04-03T22:34:52.133Z,13
2023-04-03T22:39:52.267Z,12
2023-04-03T22:44:52.183Z,12
2023-04-03T22:49:52.160Z,13
2023-04-03T22:54:52.254Z,13
2023-04-03T22:59:52.270Z,14
2023-04-03T23:04:52.218Z,14
2023-04-03T23:09:52.360Z,13
2023-04-03T23:14:52.361Z,13
2023-04-03T23:19:52.180Z,14
2023-04-03T23:24:52.039Z,14
2023-04-03T23:29:52.235Z,13
2023-04-03T23:34:51.886Z,14
2023-04-03T23:39:52.269Z,14
2023-04-03T23:44:51.930Z,13
2023-04-03T23:49:51.984Z,13
2023-04-03T23:54:52.115Z,13
2023-04-03T23:59:52.107Z,13
